sensor_id;sensor_type;location;lat;lon;timestamp;pressure;altitude;pressure_sealevel;temperature;humidity
69566;BME280;56777;55.930;37.524;2024-01-27T00:01:32;100910.94;;;1.38;100.00
69566;BME280;56777;55.930;37.524;2024-01-27T00:03:58;100929.94;;;1.40;100.00
69566;BME280;56777;55.930;37.524;2024-01-27T00:06:24;100922.66;;;1.32;100.00
69566;BME280;56777;55.930;37.524;2024-01-27T00:08:49;100914.75;;;1.29;100.00
69566;BME280;56777;55.930;37.524;2024-01-27T00:11:15;100918.22;;;1.45;100.00
69566;BME280;56777;55.930;37.524;2024-01-27T00:13:40;100876.75;;;1.27;100.00
69566;BME280;56777;55.930;37.524;2024-01-27T00:16:06;100910.94;;;1.38;100.00
69566;BME280;56777;55.930;37.524;2024-01-27T00:18:35;100870.69;;;1.26;100.00
69566;BME280;56777;55.930;37.524;2024-01-27T00:21:01;100853.78;;;1.02;100.00
69566;BME280;56777;55.930;37.524;2024-01-27T00:23:26;100899.34;;;1.31;100.00
69566;BME280;56777;55.930;37.524;2024-01-27T00:25:52;100798.97;;;0.61;100.00
69566;BME280;56777;55.930;37.524;2024-01-27T00:28:17;100919.09;;;1.30;100.00
69566;BME280;56777;55.930;37.524;2024-01-27T00:30:43;100912.00;;;1.26;100.00
69566;BME280;56777;55.930;37.524;2024-01-27T00:33:09;100877.47;;;1.09;100.00
69566;BME280;56777;55.930;37.524;2024-01-27T00:35:34;100903.88;;;1.20;100.00
69566;BME280;56777;55.930;37.524;2024-01-27T00:38:00;100919.81;;;1.28;100.00
69566;BME280;56777;55.930;37.524;2024-01-27T00:40:25;100919.75;;;1.26;100.00
69566;BME280;56777;55.930;37.524;2024-01-27T00:42:51;100918.75;;;1.24;100.00
69566;BME280;56777;55.930;37.524;2024-01-27T00:45:16;100913.22;;;1.18;100.00
69566;BME280;56777;55.930;37.524;2024-01-27T00:47:42;100918.75;;;1.24;100.00
69566;BME280;56777;55.930;37.524;2024-01-27T00:50:08;100914.75;;;1.15;100.00
69566;BME280;56777;55.930;37.524;2024-01-27T00:52:34;100905.13;;;1.12;100.00
69566;BME280;56777;55.930;37.524;2024-01-27T00:55:00;100909.38;;;1.11;100.00
69566;BME280;56777;55.930;37.524;2024-01-27T00:57:26;100902.91;;;1.03;100.00
69566;BME280;56777;55.930;37.524;2024-01-27T00:59:51;100915.88;;;1.05;100.00
69566;BME280;56777;55.930;37.524;2024-01-27T01:02:17;100910.47;;;1.00;100.00
69566;BME280;56777;55.930;37.524;2024-01-27T01:04:42;100909.13;;;1.07;100.00
69566;BME280;56777;55.930;37.524;2024-01-27T01:07:08;100899.88;;;1.10;100.00
69566;BME280;56777;55.930;37.524;2024-01-27T01:09:34;100901.38;;;1.07;100.00
69566;BME280;56777;55.930;37.524;2024-01-27T01:11:59;100901.81;;;1.00;100.00
69566;BME280;56777;55.930;37.524;2024-01-27T01:14:25;100913.56;;;0.95;100.00
69566;BME280;56777;55.930;37.524;2024-01-27T01:16:50;100920.50;;;0.96;100.00
69566;BME280;56777;55.930;37.524;2024-01-27T01:19:16;100913.56;;;0.95;100.00
69566;BME280;56777;55.930;37.524;2024-01-27T01:21:42;100912.84;;;0.97;100.00
69566;BME280;56777;55.930;37.524;2024-01-27T01:24:07;100906.38;;;1.04;100.00
69566;BME280;56777;55.930;37.524;2024-01-27T01:26:33;100909.03;;;1.05;100.00
69566;BME280;56777;55.930;37.524;2024-01-27T01:28:58;100899.69;;;0.93;100.00
69566;BME280;56777;55.930;37.524;2024-01-27T01:31:24;100908.44;;;1.09;100.00
69566;BME280;56777;55.930;37.524;2024-01-27T01:33:49;100917.28;;;1.00;100.00
69566;BME280;56777;55.930;37.524;2024-01-27T01:36:15;100907.06;;;1.01;100.00
69566;BME280;56777;55.930;37.524;2024-01-27T01:38:40;100917.47;;;1.03;100.00
69566;BME280;56777;55.930;37.524;2024-01-27T01:41:06;100908.59;;;0.98;100.00
69566;BME280;56777;55.930;37.524;2024-01-27T01:43:32;100894.16;;;0.86;100.00
69566;BME280;56777;55.930;37.524;2024-01-27T01:45:57;100918.09;;;0.99;100.00
69566;BME280;56777;55.930;37.524;2024-01-27T01:48:23;100919.53;;;1.08;100.00
69566;BME280;56777;55.930;37.524;2024-01-27T01:50:49;100930.66;;;1.07;100.00
69566;BME280;56777;55.930;37.524;2024-01-27T01:53:15;100928.97;;;1.08;100.00
69566;BME280;56777;55.930;37.524;2024-01-27T01:55:41;100924.16;;;0.99;100.00
69566;BME280;56777;55.930;37.524;2024-01-27T01:58:06;100940.00;;;1.05;100.00
69566;BME280;56777;55.930;37.524;2024-01-27T02:00:32;100907.59;;;0.81;100.00
69566;BME280;56777;55.930;37.524;2024-01-27T02:02:58;100923.16;;;0.97;100.00
69566;BME280;56777;55.930;37.524;2024-01-27T02:05:24;100908.94;;;0.89;100.00
69566;BME280;56777;55.930;37.524;2024-01-27T02:07:50;100941.78;;;1.06;100.00
69566;BME280;56777;55.930;37.524;2024-01-27T02:10:17;100943.75;;;1.25;100.00
69566;BME280;56777;55.930;37.524;2024-01-27T02:12:43;100939.56;;;1.27;100.00
69566;BME280;56777;55.930;37.524;2024-01-27T02:15:13;100936.19;;;1.28;100.00
69566;BME280;56777;55.930;37.524;2024-01-27T02:17:42;100944.56;;;1.24;100.00
69566;BME280;56777;55.930;37.524;2024-01-27T02:20:07;100919.63;;;1.10;100.00
69566;BME280;56777;55.930;37.524;2024-01-27T02:22:34;100945.09;;;1.19;100.00
69566;BME280;56777;55.930;37.524;2024-01-27T02:25:00;100859.28;;;0.78;100.00
69566;BME280;56777;55.930;37.524;2024-01-27T02:27:27;100933.53;;;1.27;100.00
69566;BME280;56777;55.930;37.524;2024-01-27T02:29:52;100938.59;;;1.25;100.00
69566;BME280;56777;55.930;37.524;2024-01-27T02:32:18;100907.69;;;0.97;100.00
69566;BME280;56777;55.930;37.524;2024-01-27T02:34:43;100909.84;;;1.19;100.00
69566;BME280;56777;55.930;37.524;2024-01-27T02:37:09;100915.53;;;1.13;100.00
69566;BME280;56777;55.930;37.524;2024-01-27T02:39:35;100918.75;;;1.24;100.00
69566;BME280;56777;55.930;37.524;2024-01-27T02:42:01;100940.63;;;1.31;100.00
69566;BME280;56777;55.930;37.524;2024-01-27T02:44:27;100929.44;;;1.16;100.00
69566;BME280;56777;55.930;37.524;2024-01-27T02:46:53;100920.16;;;1.19;100.00
69566;BME280;56777;55.930;37.524;2024-01-27T02:49:18;100935.28;;;1.28;100.00
69566;BME280;56777;55.930;37.524;2024-01-27T02:51:44;100919.47;;;1.22;100.00
69566;BME280;56777;55.930;37.524;2024-01-27T02:54:10;100933.06;;;1.34;100.00
69566;BME280;56777;55.930;37.524;2024-01-27T02:56:35;100920.00;;;1.16;100.00
69566;BME280;56777;55.930;37.524;2024-01-27T02:59:02;100930.31;;;1.16;100.00
69566;BME280;56777;55.930;37.524;2024-01-27T03:01:27;100919.72;;;1.11;100.00
69566;BME280;56777;55.930;37.524;2024-01-27T03:03:53;100894.34;;;1.04;100.00
69566;BME280;56777;55.930;37.524;2024-01-27T03:06:19;100911.44;;;1.17;100.00
69566;BME280;56777;55.930;37.524;2024-01-27T03:08:44;100937.00;;;1.27;100.00
69566;BME280;56777;55.930;37.524;2024-01-27T03:11:10;100923.72;;;1.21;100.00
69566;BME280;56777;55.930;37.524;2024-01-27T03:13:36;100947.50;;;1.30;100.00
69566;BME280;56777;55.930;37.524;2024-01-27T03:16:01;100935.75;;;1.35;100.00
69566;BME280;56777;55.930;37.524;2024-01-27T03:18:27;100938.34;;;1.35;100.00
69566;BME280;56777;55.930;37.524;2024-01-27T03:20:53;100940.63;;;1.31;100.00
69566;BME280;56777;55.930;37.524;2024-01-27T03:23:18;100943.56;;;1.37;100.00
69566;BME280;56777;55.930;37.524;2024-01-27T03:25:44;100936.56;;;1.34;100.00
69566;BME280;56777;55.930;37.524;2024-01-27T03:28:10;100947.16;;;1.24;100.00
69566;BME280;56777;55.930;37.524;2024-01-27T03:30:36;100953.47;;;1.15;100.00
69566;BME280;56777;55.930;37.524;2024-01-27T03:33:01;100953.66;;;1.32;100.00
69566;BME280;56777;55.930;37.524;2024-01-27T03:35:27;100955.78;;;1.25;100.00
69566;BME280;56777;55.930;37.524;2024-01-27T03:37:52;100939.81;;;1.17;100.00
69566;BME280;56777;55.930;37.524;2024-01-27T03:40:18;100963.81;;;1.29;100.00
69566;BME280;56777;55.930;37.524;2024-01-27T03:42:43;100966.38;;;1.29;100.00
69566;BME280;56777;55.930;37.524;2024-01-27T03:45:09;100956.75;;;1.12;100.00
69566;BME280;56777;55.930;37.524;2024-01-27T03:47:35;100943.31;;;1.18;100.00
69566;BME280;56777;55.930;37.524;2024-01-27T03:50:01;100951.78;;;1.15;100.00
69566;BME280;56777;55.930;37.524;2024-01-27T03:52:26;100864.28;;;0.75;100.00
69566;BME280;56777;55.930;37.524;2024-01-27T03:54:52;100946.34;;;1.25;100.00
69566;BME280;56777;55.930;37.524;2024-01-27T03:57:17;100879.56;;;0.87;100.00
69566;BME280;56777;55.930;37.524;2024-01-27T03:59:43;100945.28;;;1.37;100.00
69566;BME280;56777;55.930;37.524;2024-01-27T04:02:08;100956.22;;;1.32;100.00
69566;BME280;56777;55.930;37.524;2024-01-27T04:04:34;100945.50;;;0.97;100.00
69566;BME280;56777;55.930;37.524;2024-01-27T04:06:59;100948.91;;;1.25;100.00
69566;BME280;56777;55.930;37.524;2024-01-27T04:09:27;100911.19;;;0.98;100.00
69566;BME280;56777;55.930;37.524;2024-01-27T04:11:52;100968.78;;;1.26;100.00
69566;BME280;56777;55.930;37.524;2024-01-27T04:14:18;100965.19;;;1.09;100.00
69566;BME280;56777;55.930;37.524;2024-01-27T04:16:44;100984.78;;;1.21;100.00
69566;BME280;56777;55.930;37.524;2024-01-27T04:19:09;100962.19;;;1.31;100.00
69566;BME280;56777;55.930;37.524;2024-01-27T04:21:35;100973.50;;;1.33;100.00
69566;BME280;56777;55.930;37.524;2024-01-27T04:24:00;100988.91;;;1.32;100.00
69566;BME280;56777;55.930;37.524;2024-01-27T04:26:26;100984.88;;;1.22;100.00
69566;BME280;56777;55.930;37.524;2024-01-27T04:28:51;100987.03;;;1.29;100.00
69566;BME280;56777;55.930;37.524;2024-01-27T04:31:17;100993.59;;;1.24;100.00
69566;BME280;56777;55.930;37.524;2024-01-27T04:33:42;100998.13;;;1.28;100.00
69566;BME280;56777;55.930;37.524;2024-01-27T04:36:08;101003.81;;;1.08;100.00
69566;BME280;56777;55.930;37.524;2024-01-27T04:38:35;100998.50;;;0.92;100.00
69566;BME280;56777;55.930;37.524;2024-01-27T04:41:01;101007.31;;;0.80;100.00
69566;BME280;56777;55.930;37.524;2024-01-27T04:43:27;101006.63;;;0.98;100.00
69566;BME280;56777;55.930;37.524;2024-01-27T04:45:54;101011.03;;;0.85;100.00
69566;BME280;56777;55.930;37.524;2024-01-27T04:48:20;100948.50;;;0.47;100.00
69566;BME280;56777;55.930;37.524;2024-01-27T04:50:45;101002.53;;;0.73;100.00
69566;BME280;56777;55.930;37.524;2024-01-27T04:53:12;101012.06;;;0.74;100.00
69566;BME280;56777;55.930;37.524;2024-01-27T04:55:38;101015.22;;;0.83;100.00
69566;BME280;56777;55.930;37.524;2024-01-27T04:58:04;100996.56;;;0.74;100.00
69566;BME280;56777;55.930;37.524;2024-01-27T05:00:30;101004.56;;;0.92;100.00
69566;BME280;56777;55.930;37.524;2024-01-27T05:02:55;101011.63;;;0.95;100.00
69566;BME280;56777;55.930;37.524;2024-01-27T05:05:22;100938.63;;;0.54;100.00
69566;BME280;56777;55.930;37.524;2024-01-27T05:07:48;101015.66;;;0.91;100.00
69566;BME280;56777;55.930;37.524;2024-01-27T05:10:15;101025.28;;;0.94;100.00
69566;BME280;56777;55.930;37.524;2024-01-27T05:12:41;100981.53;;;0.67;100.00
69566;BME280;56777;55.930;37.524;2024-01-27T05:15:07;101027.31;;;1.12;100.00
69566;BME280;56777;55.930;37.524;2024-01-27T05:17:33;101024.97;;;1.02;100.00
69566;BME280;56777;55.930;37.524;2024-01-27T05:19:59;100900.94;;;0.28;100.00
69566;BME280;56777;55.930;37.524;2024-01-27T05:22:25;101007.00;;;1.04;100.00
69566;BME280;56777;55.930;37.524;2024-01-27T05:24:50;101024.91;;;1.16;100.00
69566;BME280;56777;55.930;37.524;2024-01-27T05:27:16;100982.84;;;0.88;100.00
69566;BME280;56777;55.930;37.524;2024-01-27T05:29:41;100996.06;;;0.80;100.00
69566;BME280;56777;55.930;37.524;2024-01-27T05:32:08;101003.06;;;0.96;100.00
69566;BME280;56777;55.930;37.524;2024-01-27T05:34:34;101012.34;;;1.07;100.00
69566;BME280;56777;55.930;37.524;2024-01-27T05:36:59;101029.72;;;1.09;100.00
69566;BME280;56777;55.930;37.524;2024-01-27T05:39:25;101016.63;;;1.06;100.00
69566;BME280;56777;55.930;37.524;2024-01-27T05:41:50;101035.13;;;1.14;100.00
69566;BME280;56777;55.930;37.524;2024-01-27T05:44:16;101029.34;;;1.03;100.00
69566;BME280;56777;55.930;37.524;2024-01-27T05:46:41;100976.53;;;0.83;100.00
69566;BME280;56777;55.930;37.524;2024-01-27T05:49:07;101020.28;;;1.10;100.00
69566;BME280;56777;55.930;37.524;2024-01-27T05:51:32;101028.38;;;1.16;100.00
69566;BME280;56777;55.930;37.524;2024-01-27T05:53:59;101033.72;;;1.19;100.00
69566;BME280;56777;55.930;37.524;2024-01-27T05:56:24;101036.66;;;1.10;100.00
69566;BME280;56777;55.930;37.524;2024-01-27T05:58:50;101026.84;;;1.05;100.00
69566;BME280;56777;55.930;37.524;2024-01-27T06:01:17;101050.09;;;1.20;100.00
69566;BME280;56777;55.930;37.524;2024-01-27T06:03:43;101041.31;;;1.31;100.00
69566;BME280;56777;55.930;37.524;2024-01-27T06:06:09;101032.56;;;1.14;100.00
69566;BME280;56777;55.930;37.524;2024-01-27T06:08:35;101029.19;;;1.15;100.00
69566;BME280;56777;55.930;37.524;2024-01-27T06:11:01;101036.13;;;1.16;100.00
69566;BME280;56777;55.930;37.524;2024-01-27T06:13:28;101046.03;;;1.23;100.00
69566;BME280;56777;55.930;37.524;2024-01-27T06:15:54;101043.50;;;1.10;100.00
69566;BME280;56777;55.930;37.524;2024-01-27T06:18:19;101028.03;;;1.10;100.00
69566;BME280;56777;55.930;37.524;2024-01-27T06:20:46;101039.00;;;1.21;100.00
69566;BME280;56777;55.930;37.524;2024-01-27T06:23:11;101033.47;;;1.15;100.00
69566;BME280;56777;55.930;37.524;2024-01-27T06:25:37;101040.28;;;1.14;100.00
69566;BME280;56777;55.930;37.524;2024-01-27T06:28:02;101040.59;;;1.19;100.00
69566;BME280;56777;55.930;37.524;2024-01-27T06:30:28;101016.66;;;0.93;100.00
69566;BME280;56777;55.930;37.524;2024-01-27T06:32:53;101053.31;;;1.16;100.00
69566;BME280;56777;55.930;37.524;2024-01-27T06:35:19;101055.25;;;1.20;100.00
69566;BME280;56777;55.930;37.524;2024-01-27T06:37:44;101041.59;;;1.21;100.00
69566;BME280;56777;55.930;37.524;2024-01-27T06:40:10;101045.81;;;1.20;100.00
69566;BME280;56777;55.930;37.524;2024-01-27T06:42:36;101037.31;;;1.21;100.00
69566;BME280;56777;55.930;37.524;2024-01-27T06:45:03;101039.69;;;1.18;100.00
69566;BME280;56777;55.930;37.524;2024-01-27T06:47:29;101030.56;;;1.23;100.00
69566;BME280;56777;55.930;37.524;2024-01-27T06:49:55;101041.06;;;1.26;100.00
69566;BME280;56777;55.930;37.524;2024-01-27T06:52:21;101025.09;;;1.19;100.00
69566;BME280;56777;55.930;37.524;2024-01-27T06:54:46;101042.84;;;1.27;100.00
69566;BME280;56777;55.930;37.524;2024-01-27T06:57:19;101043.34;;;1.22;100.00
69566;BME280;56777;55.930;37.524;2024-01-27T06:59:48;101034.63;;;1.20;100.00
69566;BME280;56777;55.930;37.524;2024-01-27T07:02:28;101044.00;;;1.32;100.00
69566;BME280;56777;55.930;37.524;2024-01-27T07:04:56;101028.41;;;1.31;100.00
69566;BME280;56777;55.930;37.524;2024-01-27T07:07:28;101034.56;;;1.33;100.00
69566;BME280;56777;55.930;37.524;2024-01-27T07:09:57;101023.59;;;1.37;100.00
69566;BME280;56777;55.930;37.524;2024-01-27T07:12:23;101030.66;;;1.40;100.00
69566;BME280;56777;55.930;37.524;2024-01-27T07:14:49;101017.50;;;1.35;100.00
69566;BME280;56777;55.930;37.524;2024-01-27T07:17:15;101007.75;;;1.31;100.00
69566;BME280;56777;55.930;37.524;2024-01-27T07:19:40;101025.47;;;1.40;100.00
69566;BME280;56777;55.930;37.524;2024-01-27T07:22:06;101040.09;;;1.39;100.00
69566;BME280;56777;55.930;37.524;2024-01-27T07:24:31;101023.91;;;1.42;100.00
69566;BME280;56777;55.930;37.524;2024-01-27T07:27:00;101035.81;;;1.40;100.00
69566;BME280;56777;55.930;37.524;2024-01-27T07:29:26;101005.78;;;1.12;100.00
69566;BME280;56777;55.930;37.524;2024-01-27T07:31:51;101024.47;;;1.23;100.00
69566;BME280;56777;55.930;37.524;2024-01-27T07:34:17;101046.78;;;1.50;100.00
69566;BME280;56777;55.930;37.524;2024-01-27T07:36:43;101045.06;;;1.36;100.00
69566;BME280;56777;55.930;37.524;2024-01-27T07:39:09;101040.63;;;1.33;100.00
69566;BME280;56777;55.930;37.524;2024-01-27T07:41:35;101058.16;;;1.39;100.00
69566;BME280;56777;55.930;37.524;2024-01-27T07:44:11;101026.28;;;1.24;100.00
69566;BME280;56777;55.930;37.524;2024-01-27T07:46:38;101051.47;;;1.43;100.00
69566;BME280;56777;55.930;37.524;2024-01-27T07:49:03;101031.44;;;1.24;100.00
69566;BME280;56777;55.930;37.524;2024-01-27T07:51:29;101037.50;;;1.24;100.00
69566;BME280;56777;55.930;37.524;2024-01-27T07:53:55;101060.50;;;1.49;100.00
69566;BME280;56777;55.930;37.524;2024-01-27T07:56:21;101059.56;;;1.34;100.00
69566;BME280;56777;55.930;37.524;2024-01-27T07:58:46;101049.16;;;1.32;100.00
69566;BME280;56777;55.930;37.524;2024-01-27T08:01:15;101054.75;;;1.25;100.00
69566;BME280;56777;55.930;37.524;2024-01-27T08:03:41;101054.38;;;1.19;100.00
69566;BME280;56777;55.930;37.524;2024-01-27T08:06:10;101023.16;;;0.86;100.00
69566;BME280;56777;55.930;37.524;2024-01-27T08:08:36;101060.19;;;1.02;100.00
69566;BME280;56777;55.930;37.524;2024-01-27T08:11:02;101067.13;;;1.03;100.00
69566;BME280;56777;55.930;37.524;2024-01-27T08:13:28;101035.94;;;0.85;100.00
69566;BME280;56777;55.930;37.524;2024-01-27T08:15:54;101051.09;;;0.94;100.00
69566;BME280;56777;55.930;37.524;2024-01-27T08:18:19;101074.00;;;1.02;100.00
69566;BME280;56777;55.930;37.524;2024-01-27T08:20:45;101071.22;;;0.99;100.00
69566;BME280;56777;55.930;37.524;2024-01-27T08:23:10;101074.09;;;1.04;100.00
69566;BME280;56777;55.930;37.524;2024-01-27T08:25:36;101075.13;;;0.93;100.00
69566;BME280;56777;55.930;37.524;2024-01-27T08:28:02;101041.63;;;0.79;100.00
69566;BME280;56777;55.930;37.524;2024-01-27T08:30:27;101051.00;;;0.92;100.00
69566;BME280;56777;55.930;37.524;2024-01-27T08:32:53;101057.84;;;0.92;100.00
69566;BME280;56777;55.930;37.524;2024-01-27T08:35:18;101045.06;;;0.93;100.00
69566;BME280;56777;55.930;37.524;2024-01-27T08:37:44;101044.44;;;0.97;100.00
69566;BME280;56777;55.930;37.524;2024-01-27T08:40:09;101043.56;;;1.11;100.00
69566;BME280;56777;55.930;37.524;2024-01-27T08:42:35;101053.81;;;1.10;100.00
69566;BME280;56777;55.930;37.524;2024-01-27T08:45:00;100980.16;;;0.72;100.00
69566;BME280;56777;55.930;37.524;2024-01-27T08:47:26;101041.91;;;1.12;100.00
69566;BME280;56777;55.930;37.524;2024-01-27T08:49:51;101050.75;;;1.02;100.00
69566;BME280;56777;55.930;37.524;2024-01-27T08:52:17;101020.38;;;0.83;100.00
69566;BME280;56777;55.930;37.524;2024-01-27T08:54:42;101029.41;;;0.77;100.00
69566;BME280;56777;55.930;37.524;2024-01-27T08:57:08;100997.59;;;0.63;100.00
69566;BME280;56777;55.930;37.524;2024-01-27T08:59:33;101033.53;;;0.88;100.00
69566;BME280;56777;55.930;37.524;2024-01-27T09:02:01;101022.81;;;0.95;100.00
69566;BME280;56777;55.930;37.524;2024-01-27T09:04:26;101023.53;;;0.93;100.00
69566;BME280;56777;55.930;37.524;2024-01-27T09:06:52;101039.00;;;0.93;100.00
69566;BME280;56777;55.930;37.524;2024-01-27T09:09:17;101045.16;;;0.95;100.00
69566;BME280;56777;55.930;37.524;2024-01-27T09:11:43;101043.66;;;0.98;100.00
69566;BME280;56777;55.930;37.524;2024-01-27T09:14:08;101032.69;;;0.74;100.00
69566;BME280;56777;55.930;37.524;2024-01-27T09:16:34;101039.28;;;0.69;100.00
69566;BME280;56777;55.930;37.524;2024-01-27T09:18:59;101030.78;;;0.85;100.00
69566;BME280;56777;55.930;37.524;2024-01-27T09:21:25;101040.03;;;0.81;100.00
69566;BME280;56777;55.930;37.524;2024-01-27T09:23:56;101054.50;;;0.79;100.00
69566;BME280;56777;55.930;37.524;2024-01-27T09:26:24;101026.47;;;0.71;100.00
69566;BME280;56777;55.930;37.524;2024-01-27T09:28:50;101047.53;;;0.92;100.00
69566;BME280;56777;55.930;37.524;2024-01-27T09:31:23;101047.34;;;0.88;100.00
69566;BME280;56777;55.930;37.524;2024-01-27T09:33:52;101033.28;;;0.83;100.00
69566;BME280;56777;55.930;37.524;2024-01-27T09:36:19;100995.88;;;0.77;100.00
69566;BME280;56777;55.930;37.524;2024-01-27T09:38:45;101046.69;;;1.06;100.00
69566;BME280;56777;55.930;37.524;2024-01-27T09:41:12;101034.22;;;0.99;100.00
69566;BME280;56777;55.930;37.524;2024-01-27T09:43:42;101045.47;;;1.14;100.00
69566;BME280;56777;55.930;37.524;2024-01-27T09:46:13;101033.59;;;1.03;100.00
69566;BME280;56777;55.930;37.524;2024-01-27T09:48:39;101048.31;;;0.90;100.00
69566;BME280;56777;55.930;37.524;2024-01-27T09:51:07;101045.22;;;0.96;100.00
69566;BME280;56777;55.930;37.524;2024-01-27T09:53:32;101024.56;;;0.81;100.00
69566;BME280;56777;55.930;37.524;2024-01-27T09:55:58;101051.97;;;0.66;100.00
69566;BME280;56777;55.930;37.524;2024-01-27T09:58:26;101029.69;;;0.40;100.00
69566;BME280;56777;55.930;37.524;2024-01-27T10:00:56;101036.81;;;0.57;100.00
69566;BME280;56777;55.930;37.524;2024-01-27T10:03:24;101047.41;;;0.62;100.00
69566;BME280;56777;55.930;37.524;2024-01-27T10:05:51;100987.00;;;0.04;100.00
69566;BME280;56777;55.930;37.524;2024-01-27T10:08:18;101056.16;;;0.51;100.00
69566;BME280;56777;55.930;37.524;2024-01-27T10:10:43;101046.94;;;0.41;100.00
69566;BME280;56777;55.930;37.524;2024-01-27T10:13:10;101010.38;;;0.20;100.00
69566;BME280;56777;55.930;37.524;2024-01-27T10:15:38;101031.09;;;0.35;100.00
69566;BME280;56777;55.930;37.524;2024-01-27T10:18:08;101060.31;;;0.49;100.00
69566;BME280;56777;55.930;37.524;2024-01-27T10:20:34;101058.66;;;0.49;100.00
69566;BME280;56777;55.930;37.524;2024-01-27T10:23:10;101049.34;;;0.38;100.00
69566;BME280;56777;55.930;37.524;2024-01-27T10:25:40;101048.13;;;0.46;100.00
69566;BME280;56777;55.930;37.524;2024-01-27T10:28:09;101052.69;;;0.37;100.00
69566;BME280;56777;55.930;37.524;2024-01-27T10:30:35;101045.25;;;0.28;100.00
69566;BME280;56777;55.930;37.524;2024-01-27T10:33:01;101056.19;;;0.37;100.00
69566;BME280;56777;55.930;37.524;2024-01-27T10:35:28;101056.97;;;0.36;100.00
69566;BME280;56777;55.930;37.524;2024-01-27T10:37:54;101013.25;;;0.11;100.00
69566;BME280;56777;55.930;37.524;2024-01-27T10:40:21;101046.66;;;0.50;100.00
69566;BME280;56777;55.930;37.524;2024-01-27T10:43:03;101058.66;;;0.36;100.00
69566;BME280;56777;55.930;37.524;2024-01-27T10:48:02;101046.69;;;0.23;100.00
69566;BME280;56777;55.930;37.524;2024-01-27T10:50:28;101053.78;;;0.27;100.00
69566;BME280;56777;55.930;37.524;2024-01-27T10:52:57;101052.31;;;0.31;100.00
69566;BME280;56777;55.930;37.524;2024-01-27T10:55:23;101010.00;;;0.01;100.00
69566;BME280;56777;55.930;37.524;2024-01-27T10:57:51;101059.34;;;0.33;100.00
69566;BME280;56777;55.930;37.524;2024-01-27T11:00:18;101055.69;;;0.43;100.00
69566;BME280;56777;55.930;37.524;2024-01-27T11:02:44;101061.69;;;0.57;100.00
69566;BME280;56777;55.930;37.524;2024-01-27T11:05:11;101043.19;;;0.36;100.00
69566;BME280;56777;55.930;37.524;2024-01-27T11:07:39;101046.25;;;0.43;100.00
69566;BME280;56777;55.930;37.524;2024-01-27T11:10:07;101040.72;;;0.37;100.00
69566;BME280;56777;55.930;37.524;2024-01-27T11:12:33;101030.09;;;0.33;100.00
69566;BME280;56777;55.930;37.524;2024-01-27T11:14:59;101059.22;;;0.72;100.00
69566;BME280;56777;55.930;37.524;2024-01-27T11:17:25;101055.16;;;0.49;100.00
69566;BME280;56777;55.930;37.524;2024-01-27T11:19:50;101065.06;;;0.56;100.00
69566;BME280;56777;55.930;37.524;2024-01-27T11:22:27;101071.41;;;0.61;100.00
69566;BME280;56777;55.930;37.524;2024-01-27T11:25:22;101071.41;;;0.61;100.00
69566;BME280;56777;55.930;37.524;2024-01-27T11:27:48;101060.91;;;0.44;100.00
69566;BME280;56777;55.930;37.524;2024-01-27T11:30:26;101073.00;;;0.59;100.00
69566;BME280;56777;55.930;37.524;2024-01-27T11:32:56;101073.38;;;0.65;100.00
69566;BME280;56777;55.930;37.524;2024-01-27T11:35:25;101024.75;;;0.43;100.00
69566;BME280;56777;55.930;37.524;2024-01-27T11:37:50;101064.56;;;0.61;100.00
69566;BME280;56777;55.930;37.524;2024-01-27T11:40:16;101062.13;;;0.91;100.00
69566;BME280;56777;55.930;37.524;2024-01-27T11:42:42;101046.59;;;0.76;100.00
69566;BME280;56777;55.930;37.524;2024-01-27T11:45:09;101076.50;;;0.87;100.00
69566;BME280;56777;55.930;37.524;2024-01-27T11:47:35;101067.28;;;0.91;100.00
69566;BME280;56777;55.930;37.524;2024-01-27T11:50:00;101074.94;;;0.89;100.00
69566;BME280;56777;55.930;37.524;2024-01-27T11:52:28;101085.66;;;0.82;100.00
69566;BME280;56777;55.930;37.524;2024-01-27T11:54:57;101074.56;;;0.70;100.00
69566;BME280;56777;55.930;37.524;2024-01-27T11:57:23;101096.09;;;0.71;100.00
69566;BME280;56777;55.930;37.524;2024-01-27T11:59:50;101062.53;;;0.29;100.00
69566;BME280;56777;55.930;37.524;2024-01-27T12:02:16;101084.44;;;0.09;100.00
69566;BME280;56777;55.930;37.524;2024-01-27T12:04:42;101083.75;;;0.12;100.00
69566;BME280;56777;55.930;37.524;2024-01-27T12:07:08;101090.44;;;-0.04;100.00
69566;BME280;56777;55.930;37.524;2024-01-27T12:09:36;101110.88;;;0.07;100.00
69566;BME280;56777;55.930;37.524;2024-01-27T12:12:02;101086.50;;;0.02;100.00
69566;BME280;56777;55.930;37.524;2024-01-27T12:14:41;101101.88;;;0.00;100.00
69566;BME280;56777;55.930;37.524;2024-01-27T12:17:08;101100.75;;;-0.17;100.00
69566;BME280;56777;55.930;37.524;2024-01-27T12:19:35;101075.56;;;-0.21;100.00
69566;BME280;56777;55.930;37.524;2024-01-27T12:22:01;101090.44;;;-0.04;100.00
69566;BME280;56777;55.930;37.524;2024-01-27T12:24:27;101096.16;;;-0.21;100.00
69566;BME280;56777;55.930;37.524;2024-01-27T12:26:52;101079.88;;;-0.33;100.00
69566;BME280;56777;55.930;37.524;2024-01-27T12:29:20;101092.22;;;-0.16;100.00
69566;BME280;56777;55.930;37.524;2024-01-27T12:31:46;101120.59;;;-0.03;100.00
69566;BME280;56777;55.930;37.524;2024-01-27T12:34:11;101120.13;;;-0.09;100.00
69566;BME280;56777;55.930;37.524;2024-01-27T12:36:43;101103.13;;;-0.07;100.00
69566;BME280;56777;55.930;37.524;2024-01-27T12:39:09;101125.94;;;0.01;100.00